sensor_id;sensor_type;location;lat;lon;timestamp;temperature;humidity
16479;DHT22;8350;52.316;10.530;2023-06-19T00:00:08;21.20;1.00
16479;DHT22;8350;52.316;10.530;2023-06-19T00:02:38;21.30;1.00
16479;DHT22;8350;52.316;10.530;2023-06-19T00:05:06;21.30;1.00
16479;DHT22;8350;52.316;10.530;2023-06-19T00:07:40;21.40;1.00
16479;DHT22;8350;52.316;10.530;2023-06-19T00:10:11;21.40;1.00
16479;DHT22;8350;52.316;10.530;2023-06-19T00:12:38;21.40;99.90
16479;DHT22;8350;52.316;10.530;2023-06-19T00:15:06;21.40;1.00
16479;DHT22;8350;52.316;10.530;2023-06-19T00:17:34;21.30;1.00
16479;DHT22;8350;52.316;10.530;2023-06-19T00:20:03;21.30;1.00
16479;DHT22;8350;52.316;10.530;2023-06-19T00:22:30;21.40;1.00
16479;DHT22;8350;52.316;10.530;2023-06-19T00:24:59;21.30;1.00
16479;DHT22;8350;52.316;10.530;2023-06-19T00:27:28;21.30;1.00
16479;DHT22;8350;52.316;10.530;2023-06-19T00:29:57;21.40;1.00
16479;DHT22;8350;52.316;10.530;2023-06-19T00:32:27;21.40;1.00
16479;DHT22;8350;52.316;10.530;2023-06-19T00:34:54;21.30;99.90
16479;DHT22;8350;52.316;10.530;2023-06-19T00:37:21;21.30;1.00
16479;DHT22;8350;52.316;10.530;2023-06-19T00:39:48;21.30;1.00
16479;DHT22;8350;52.316;10.530;2023-06-19T00:42:16;21.30;14.80
16479;DHT22;8350;52.316;10.530;2023-06-19T00:44:43;21.30;1.00
16479;DHT22;8350;52.316;10.530;2023-06-19T00:47:10;21.30;1.00
16479;DHT22;8350;52.316;10.530;2023-06-19T00:49:37;21.30;1.00
16479;DHT22;8350;52.316;10.530;2023-06-19T00:52:05;21.40;1.00
16479;DHT22;8350;52.316;10.530;2023-06-19T00:54:32;21.40;1.00
16479;DHT22;8350;52.316;10.530;2023-06-19T00:56:59;21.40;1.00
16479;DHT22;8350;52.316;10.530;2023-06-19T00:59:28;21.60;99.90
16479;DHT22;8350;52.316;10.530;2023-06-19T01:01:56;21.80;82.70
16479;DHT22;8350;52.316;10.530;2023-06-19T01:04:23;21.90;1.00
16479;DHT22;8350;52.316;10.530;2023-06-19T01:06:56;22.00;1.00
16479;DHT22;8350;52.316;10.530;2023-06-19T01:09:28;22.00;1.00
16479;DHT22;8350;52.316;10.530;2023-06-19T01:12:01;22.10;1.00
16479;DHT22;8350;52.316;10.530;2023-06-19T01:14:37;22.10;1.00
16479;DHT22;8350;52.316;10.530;2023-06-19T01:17:06;22.20;1.00
16479;DHT22;8350;52.316;10.530;2023-06-19T01:19:33;22.20;1.00
16479;DHT22;8350;52.316;10.530;2023-06-19T01:22:03;22.20;1.00
16479;DHT22;8350;52.316;10.530;2023-06-19T01:24:30;22.30;1.00
16479;DHT22;8350;52.316;10.530;2023-06-19T01:26:57;22.30;1.00
16479;DHT22;8350;52.316;10.530;2023-06-19T01:29:24;22.30;1.00
16479;DHT22;8350;52.316;10.530;2023-06-19T01:31:54;22.40;1.00
16479;DHT22;8350;52.316;10.530;2023-06-19T01:34:23;22.40;1.00
16479;DHT22;8350;52.316;10.530;2023-06-19T01:36:54;22.40;99.90
16479;DHT22;8350;52.316;10.530;2023-06-19T01:39:24;22.40;99.90
16479;DHT22;8350;52.316;10.530;2023-06-19T01:41:52;22.40;99.90
16479;DHT22;8350;52.316;10.530;2023-06-19T01:44:23;22.40;99.90
16479;DHT22;8350;52.316;10.530;2023-06-19T01:46:50;22.40;99.90
16479;DHT22;8350;52.316;10.530;2023-06-19T01:49:18;22.40;99.90
16479;DHT22;8350;52.316;10.530;2023-06-19T01:51:53;22.40;99.90
16479;DHT22;8350;52.316;10.530;2023-06-19T01:54:21;22.40;99.90
16479;DHT22;8350;52.316;10.530;2023-06-19T01:56:49;22.30;99.90
16479;DHT22;8350;52.316;10.530;2023-06-19T01:59:16;22.30;99.90
16479;DHT22;8350;52.316;10.530;2023-06-19T02:01:43;22.20;99.90
16479;DHT22;8350;52.316;10.530;2023-06-19T02:04:10;22.30;99.90
16479;DHT22;8350;52.316;10.530;2023-06-19T02:06:37;22.30;99.90
16479;DHT22;8350;52.316;10.530;2023-06-19T02:09:04;22.30;99.90
16479;DHT22;8350;52.316;10.530;2023-06-19T02:11:31;22.30;99.90
16479;DHT22;8350;52.316;10.530;2023-06-19T02:13:59;22.30;99.90
16479;DHT22;8350;52.316;10.530;2023-06-19T02:16:25;22.30;99.90
16479;DHT22;8350;52.316;10.530;2023-06-19T02:18:52;22.30;99.90
16479;DHT22;8350;52.316;10.530;2023-06-19T02:21:19;22.30;99.90
16479;DHT22;8350;52.316;10.530;2023-06-19T02:23:46;22.30;99.90
16479;DHT22;8350;52.316;10.530;2023-06-19T02:26:12;22.30;99.90
16479;DHT22;8350;52.316;10.530;2023-06-19T02:28:39;22.20;99.90
16479;DHT22;8350;52.316;10.530;2023-06-19T02:31:07;22.20;1.00
16479;DHT22;8350;52.316;10.530;2023-06-19T02:33:34;22.20;1.00
16479;DHT22;8350;52.316;10.530;2023-06-19T02:36:01;22.20;99.90
16479;DHT22;8350;52.316;10.530;2023-06-19T02:38:28;22.20;1.00
16479;DHT22;8350;52.316;10.530;2023-06-19T02:40:56;22.30;99.90
16479;DHT22;8350;52.316;10.530;2023-06-19T02:43:25;22.20;1.00
16479;DHT22;8350;52.316;10.530;2023-06-19T02:45:52;22.30;1.00
16479;DHT22;8350;52.316;10.530;2023-06-19T02:48:20;22.20;1.00
16479;DHT22;8350;52.316;10.530;2023-06-19T02:50:48;22.20;1.00
16479;DHT22;8350;52.316;10.530;2023-06-19T02:53:15;22.20;1.00
16479;DHT22;8350;52.316;10.530;2023-06-19T02:55:42;22.20;1.00
16479;DHT22;8350;52.316;10.530;2023-06-19T02:58:09;22.20;1.00
16479;DHT22;8350;52.316;10.530;2023-06-19T03:00:36;22.20;1.00
16479;DHT22;8350;52.316;10.530;2023-06-19T03:03:03;22.10;1.00
16479;DHT22;8350;52.316;10.530;2023-06-19T03:05:31;22.20;1.00
16479;DHT22;8350;52.316;10.530;2023-06-19T03:07:57;22.20;1.00
16479;DHT22;8350;52.316;10.530;2023-06-19T03:10:24;22.20;1.00
16479;DHT22;8350;52.316;10.530;2023-06-19T03:12:54;22.10;1.00
16479;DHT22;8350;52.316;10.530;2023-06-19T03:15:26;22.10;1.00
16479;DHT22;8350;52.316;10.530;2023-06-19T03:17:53;22.10;1.00
16479;DHT22;8350;52.316;10.530;2023-06-19T03:20:20;22.10;1.00
16479;DHT22;8350;52.316;10.530;2023-06-19T03:22:48;22.10;1.00
16479;DHT22;8350;52.316;10.530;2023-06-19T03:25:15;22.00;1.00
16479;DHT22;8350;52.316;10.530;2023-06-19T03:27:45;22.00;1.00
16479;DHT22;8350;52.316;10.530;2023-06-19T03:30:12;22.00;1.00
16479;DHT22;8350;52.316;10.530;2023-06-19T03:32:39;22.00;1.00
16479;DHT22;8350;52.316;10.530;2023-06-19T03:35:09;22.00;1.00
16479;DHT22;8350;52.316;10.530;2023-06-19T03:37:36;22.00;1.00
16479;DHT22;8350;52.316;10.530;2023-06-19T03:40:05;21.90;1.00
16479;DHT22;8350;52.316;10.530;2023-06-19T03:42:34;21.90;1.00
16479;DHT22;8350;52.316;10.530;2023-06-19T03:45:01;21.80;1.00
16479;DHT22;8350;52.316;10.530;2023-06-19T03:47:27;21.80;1.00
16479;DHT22;8350;52.316;10.530;2023-06-19T03:49:54;21.80;12.80
16479;DHT22;8350;52.316;10.530;2023-06-19T03:52:21;21.80;99.90
16479;DHT22;8350;52.316;10.530;2023-06-19T03:54:47;21.80;1.00
16479;DHT22;8350;52.316;10.530;2023-06-19T03:57:19;21.70;1.00
16479;DHT22;8350;52.316;10.530;2023-06-19T03:59:45;21.70;99.90
16479;DHT22;8350;52.316;10.530;2023-06-19T04:02:12;21.70;1.00
16479;DHT22;8350;52.316;10.530;2023-06-19T04:04:39;21.70;1.00
16479;DHT22;8350;52.316;10.530;2023-06-19T04:07:06;21.60;1.00
16479;DHT22;8350;52.316;10.530;2023-06-19T04:09:32;21.60;99.90
16479;DHT22;8350;52.316;10.530;2023-06-19T04:11:59;21.50;1.00
16479;DHT22;8350;52.316;10.530;2023-06-19T04:14:27;21.50;99.90
16479;DHT22;8350;52.316;10.530;2023-06-19T04:16:54;21.40;1.00
16479;DHT22;8350;52.316;10.530;2023-06-19T04:19:21;21.40;99.90
16479;DHT22;8350;52.316;10.530;2023-06-19T04:21:52;21.30;20.40
16479;DHT22;8350;52.316;10.530;2023-06-19T04:24:22;21.30;99.90
16479;DHT22;8350;52.316;10.530;2023-06-19T04:27:07;21.20;1.00
16479;DHT22;8350;52.316;10.530;2023-06-19T04:29:35;21.10;1.00
16479;DHT22;8350;52.316;10.530;2023-06-19T04:32:02;21.20;99.90
16479;DHT22;8350;52.316;10.530;2023-06-19T04:34:38;21.20;99.90
16479;DHT22;8350;52.316;10.530;2023-06-19T04:37:05;21.20;1.00
16479;DHT22;8350;52.316;10.530;2023-06-19T04:39:32;21.20;99.90
16479;DHT22;8350;52.316;10.530;2023-06-19T04:41:59;21.20;99.90
16479;DHT22;8350;52.316;10.530;2023-06-19T04:44:26;21.20;99.90
16479;DHT22;8350;52.316;10.530;2023-06-19T04:46:54;21.20;99.90
16479;DHT22;8350;52.316;10.530;2023-06-19T04:49:27;21.20;1.00
16479;DHT22;8350;52.316;10.530;2023-06-19T04:51:55;21.20;99.90
16479;DHT22;8350;52.316;10.530;2023-06-19T04:54:22;21.20;99.90
16479;DHT22;8350;52.316;10.530;2023-06-19T04:56:49;21.20;99.90
16479;DHT22;8350;52.316;10.530;2023-06-19T04:59:15;21.20;99.90
16479;DHT22;8350;52.316;10.530;2023-06-19T05:01:43;21.20;99.90
16479;DHT22;8350;52.316;10.530;2023-06-19T05:04:14;21.10;1.00
16479;DHT22;8350;52.316;10.530;2023-06-19T05:06:41;21.10;99.90
16479;DHT22;8350;52.316;10.530;2023-06-19T05:09:08;21.10;99.90
16479;DHT22;8350;52.316;10.530;2023-06-19T05:11:35;21.10;42.70
16479;DHT22;8350;52.316;10.530;2023-06-19T05:14:02;21.10;1.00
16479;DHT22;8350;52.316;10.530;2023-06-19T05:16:28;21.10;99.90
16479;DHT22;8350;52.316;10.530;2023-06-19T05:18:55;21.10;1.00
16479;DHT22;8350;52.316;10.530;2023-06-19T05:21:24;21.10;1.00
16479;DHT22;8350;52.316;10.530;2023-06-19T05:23:50;21.10;1.00
16479;DHT22;8350;52.316;10.530;2023-06-19T05:26:18;21.10;1.90
16479;DHT22;8350;52.316;10.530;2023-06-19T05:28:45;21.10;1.00
16479;DHT22;8350;52.316;10.530;2023-06-19T05:31:14;21.10;86.00
16479;DHT22;8350;52.316;10.530;2023-06-19T05:33:41;21.20;99.90
16479;DHT22;8350;52.316;10.530;2023-06-19T05:36:08;21.10;1.00
16479;DHT22;8350;52.316;10.530;2023-06-19T05:38:37;21.10;1.00
16479;DHT22;8350;52.316;10.530;2023-06-19T05:41:03;21.10;1.00
16479;DHT22;8350;52.316;10.530;2023-06-19T05:43:32;21.10;99.90
16479;DHT22;8350;52.316;10.530;2023-06-19T05:45:59;21.20;40.50
16479;DHT22;8350;52.316;10.530;2023-06-19T05:48:26;21.10;99.90
16479;DHT22;8350;52.316;10.530;2023-06-19T05:50:53;21.10;99.90
16479;DHT22;8350;52.316;10.530;2023-06-19T05:53:20;21.10;99.90
16479;DHT22;8350;52.316;10.530;2023-06-19T05:55:48;21.10;1.00
16479;DHT22;8350;52.316;10.530;2023-06-19T05:58:15;21.10;99.90
16479;DHT22;8350;52.316;10.530;2023-06-19T06:00:45;21.10;99.90
16479;DHT22;8350;52.316;10.530;2023-06-19T06:03:13;21.10;1.00
16479;DHT22;8350;52.316;10.530;2023-06-19T06:05:40;21.10;1.00
16479;DHT22;8350;52.316;10.530;2023-06-19T06:08:08;21.10;1.00
16479;DHT22;8350;52.316;10.530;2023-06-19T06:10:35;21.00;1.00
16479;DHT22;8350;52.316;10.530;2023-06-19T06:13:04;21.10;26.10
16479;DHT22;8350;52.316;10.530;2023-06-19T06:15:31;21.10;1.00
16479;DHT22;8350;52.316;10.530;2023-06-19T06:17:58;21.10;42.00
16479;DHT22;8350;52.316;10.530;2023-06-19T06:20:25;21.10;73.70
16479;DHT22;8350;52.316;10.530;2023-06-19T06:22:53;21.10;1.00
16479;DHT22;8350;52.316;10.530;2023-06-19T06:25:20;21.20;1.00
16479;DHT22;8350;52.316;10.530;2023-06-19T06:27:46;21.10;99.90
16479;DHT22;8350;52.316;10.530;2023-06-19T06:30:15;21.10;1.00
16479;DHT22;8350;52.316;10.530;2023-06-19T06:32:42;21.10;99.90
16479;DHT22;8350;52.316;10.530;2023-06-19T06:35:09;21.20;99.90
16479;DHT22;8350;52.316;10.530;2023-06-19T06:37:36;21.20;1.00
16479;DHT22;8350;52.316;10.530;2023-06-19T06:40:03;21.30;1.00
16479;DHT22;8350;52.316;10.530;2023-06-19T06:42:34;21.40;1.00
16479;DHT22;8350;52.316;10.530;2023-06-19T06:45:00;21.50;99.90
16479;DHT22;8350;52.316;10.530;2023-06-19T06:47:29;21.60;8.70
16479;DHT22;8350;52.316;10.530;2023-06-19T06:49:56;21.70;1.00
16479;DHT22;8350;52.316;10.530;2023-06-19T06:52:23;21.80;1.00
16479;DHT22;8350;52.316;10.530;2023-06-19T06:54:50;22.00;99.90
16479;DHT22;8350;52.316;10.530;2023-06-19T06:57:17;22.10;99.90
16479;DHT22;8350;52.316;10.530;2023-06-19T06:59:43;22.20;1.00
16479;DHT22;8350;52.316;10.530;2023-06-19T07:02:10;22.20;99.90
16479;DHT22;8350;52.316;10.530;2023-06-19T07:04:41;22.30;1.00
16479;DHT22;8350;52.316;10.530;2023-06-19T07:07:08;22.40;99.90
16479;DHT22;8350;52.316;10.530;2023-06-19T07:09:35;22.50;68.80
16479;DHT22;8350;52.316;10.530;2023-06-19T07:12:03;22.60;99.90
16479;DHT22;8350;52.316;10.530;2023-06-19T07:14:30;22.70;1.00
16479;DHT22;8350;52.316;10.530;2023-06-19T07:16:58;22.90;1.00
16479;DHT22;8350;52.316;10.530;2023-06-19T07:19:25;23.00;99.90
16479;DHT22;8350;52.316;10.530;2023-06-19T07:21:53;23.20;1.00
16479;DHT22;8350;52.316;10.530;2023-06-19T07:24:20;23.60;99.90
16479;DHT22;8350;52.316;10.530;2023-06-19T07:26:50;24.00;1.00
16479;DHT22;8350;52.316;10.530;2023-06-19T07:29:17;24.40;8.40
16479;DHT22;8350;52.316;10.530;2023-06-19T07:31:44;24.70;1.00
16479;DHT22;8350;52.316;10.530;2023-06-19T07:34:10;24.70;1.00
16479;DHT22;8350;52.316;10.530;2023-06-19T07:36:37;24.80;1.00
16479;DHT22;8350;52.316;10.530;2023-06-19T07:39:06;24.70;99.90
16479;DHT22;8350;52.316;10.530;2023-06-19T07:41:32;24.80;99.90
16479;DHT22;8350;52.316;10.530;2023-06-19T07:43:59;24.70;99.90
16479;DHT22;8350;52.316;10.530;2023-06-19T07:46:26;24.60;1.00
16479;DHT22;8350;52.316;10.530;2023-06-19T07:48:53;24.70;1.00
16479;DHT22;8350;52.316;10.530;2023-06-19T07:51:20;24.90;1.00
16479;DHT22;8350;52.316;10.530;2023-06-19T07:53:47;24.90;1.00
16479;DHT22;8350;52.316;10.530;2023-06-19T07:56:15;25.00;1.00
16479;DHT22;8350;52.316;10.530;2023-06-19T07:58:42;25.00;1.00
16479;DHT22;8350;52.316;10.530;2023-06-19T08:01:08;25.10;99.90
16479;DHT22;8350;52.316;10.530;2023-06-19T08:03:36;25.30;99.90
16479;DHT22;8350;52.316;10.530;2023-06-19T08:06:03;25.40;1.00
16479;DHT22;8350;52.316;10.530;2023-06-19T08:08:29;25.50;1.00
16479;DHT22;8350;52.316;10.530;2023-06-19T08:10:56;25.50;1.00
16479;DHT22;8350;52.316;10.530;2023-06-19T08:13:24;25.50;99.90
16479;DHT22;8350;52.316;10.530;2023-06-19T08:15:51;25.60;1.00
16479;DHT22;8350;52.316;10.530;2023-06-19T08:18:18;25.70;1.00
16479;DHT22;8350;52.316;10.530;2023-06-19T08:20:45;26.10;1.00
16479;DHT22;8350;52.316;10.530;2023-06-19T08:23:11;26.30;99.90
16479;DHT22;8350;52.316;10.530;2023-06-19T08:25:38;26.50;99.90
16479;DHT22;8350;52.316;10.530;2023-06-19T08:28:05;26.60;1.00
16479;DHT22;8350;52.316;10.530;2023-06-19T08:30:33;26.60;1.00
16479;DHT22;8350;52.316;10.530;2023-06-19T08:33:02;26.60;1.00
16479;DHT22;8350;52.316;10.530;2023-06-19T08:35:29;26.80;99.90
16479;DHT22;8350;52.316;10.530;2023-06-19T08:37:55;27.30;1.00
16479;DHT22;8350;52.316;10.530;2023-06-19T08:40:24;27.80;1.00
16479;DHT22;8350;52.316;10.530;2023-06-19T08:42:51;28.30;99.90
16479;DHT22;8350;52.316;10.530;2023-06-19T08:45:18;28.70;1.00
16479;DHT22;8350;52.316;10.530;2023-06-19T08:47:48;28.90;1.00
16479;DHT22;8350;52.316;10.530;2023-06-19T08:50:15;28.90;1.00
16479;DHT22;8350;52.316;10.530;2023-06-19T08:52:42;29.10;1.00
16479;DHT22;8350;52.316;10.530;2023-06-19T08:55:09;29.20;1.00
16479;DHT22;8350;52.316;10.530;2023-06-19T08:57:37;29.30;99.90
16479;DHT22;8350;52.316;10.530;2023-06-19T09:00:05;29.30;1.00
16479;DHT22;8350;52.316;10.530;2023-06-19T09:02:37;29.50;99.90
16479;DHT22;8350;52.316;10.530;2023-06-19T09:05:15;29.60;99.90
16479;DHT22;8350;52.316;10.530;2023-06-19T09:07:42;29.70;99.90
16479;DHT22;8350;52.316;10.530;2023-06-19T09:10:16;29.70;1.00
16479;DHT22;8350;52.316;10.530;2023-06-19T09:12:44;29.70;1.00
16479;DHT22;8350;52.316;10.530;2023-06-19T09:15:14;29.90;1.00
16479;DHT22;8350;52.316;10.530;2023-06-19T09:17:41;30.10;1.00
16479;DHT22;8350;52.316;10.530;2023-06-19T09:20:09;30.40;1.00
16479;DHT22;8350;52.316;10.530;2023-06-19T09:22:38;30.70;99.90
16479;DHT22;8350;52.316;10.530;2023-06-19T09:25:06;30.80;99.90
16479;DHT22;8350;52.316;10.530;2023-06-19T09:27:35;30.80;99.90
16479;DHT22;8350;52.316;10.530;2023-06-19T09:30:04;30.80;20.10
16479;DHT22;8350;52.316;10.530;2023-06-19T09:32:31;30.60;6.10
16479;DHT22;8350;52.316;10.530;2023-06-19T09:34:58;30.40;1.00
16479;DHT22;8350;52.316;10.530;2023-06-19T09:37:26;30.10;1.00
16479;DHT22;8350;52.316;10.530;2023-06-19T09:39:56;30.40;21.00
16479;DHT22;8350;52.316;10.530;2023-06-19T09:42:26;30.70;1.50
16479;DHT22;8350;52.316;10.530;2023-06-19T09:44:58;31.20;1.00
16479;DHT22;8350;52.316;10.530;2023-06-19T09:47:25;31.40;1.00
16479;DHT22;8350;52.316;10.530;2023-06-19T09:49:56;30.90;1.00
16479;DHT22;8350;52.316;10.530;2023-06-19T09:52:24;31.00;1.00
16479;DHT22;8350;52.316;10.530;2023-06-19T09:54:51;30.90;1.00
16479;DHT22;8350;52.316;10.530;2023-06-19T09:57:21;30.60;1.00
16479;DHT22;8350;52.316;10.530;2023-06-19T09:59:51;30.40;1.00
16479;DHT22;8350;52.316;10.530;2023-06-19T10:02:20;30.10;1.00
16479;DHT22;8350;52.316;10.530;2023-06-19T10:04:53;29.90;1.00
16479;DHT22;8350;52.316;10.530;2023-06-19T10:07:21;30.20;1.00
16479;DHT22;8350;52.316;10.530;2023-06-19T10:09:58;30.50;1.00
16479;DHT22;8350;52.316;10.530;2023-06-19T10:12:41;31.00;1.00
16479;DHT22;8350;52.316;10.530;2023-06-19T10:15:15;31.10;1.00
16479;DHT22;8350;52.316;10.530;2023-06-19T10:17:50;31.10;1.00
16479;DHT22;8350;52.316;10.530;2023-06-19T10:20:22;31.30;1.00
16479;DHT22;8350;52.316;10.530;2023-06-19T10:22:56;31.50;1.00
16479;DHT22;8350;52.316;10.530;2023-06-19T10:25:27;31.70;1.00
16479;DHT22;8350;52.316;10.530;2023-06-19T10:27:55;31.90;99.90
16479;DHT22;8350;52.316;10.530;2023-06-19T10:30:22;31.90;99.90
16479;DHT22;8350;52.316;10.530;2023-06-19T10:32:49;31.90;99.90
16479;DHT22;8350;52.316;10.530;2023-06-19T10:35:18;31.80;99.90
16479;DHT22;8350;52.316;10.530;2023-06-19T10:37:47;31.80;99.90
16479;DHT22;8350;52.316;10.530;2023-06-19T10:40:14;31.60;99.90
16479;DHT22;8350;52.316;10.530;2023-06-19T10:42:41;31.60;99.90
16479;DHT22;8350;52.316;10.530;2023-06-19T10:45:11;31.50;99.90
16479;DHT22;8350;52.316;10.530;2023-06-19T10:47:39;31.60;99.90
16479;DHT22;8350;52.316;10.530;2023-06-19T10:50:10;31.50;99.90
16479;DHT22;8350;52.316;10.530;2023-06-19T10:52:40;31.70;99.90
16479;DHT22;8350;52.316;10.530;2023-06-19T10:55:08;31.40;99.90
16479;DHT22;8350;52.316;10.530;2023-06-19T10:57:35;31.20;99.90
16479;DHT22;8350;52.316;10.530;2023-06-19T11:00:06;31.00;99.90
16479;DHT22;8350;52.316;10.530;2023-06-19T11:02:40;30.80;99.90
16479;DHT22;8350;52.316;10.530;2023-06-19T11:05:10;30.90;1.00
16479;DHT22;8350;52.316;10.530;2023-06-19T11:07:37;30.70;1.00
16479;DHT22;8350;52.316;10.530;2023-06-19T11:10:05;30.50;1.00
16479;DHT22;8350;52.316;10.530;2023-06-19T11:12:38;30.50;1.00
16479;DHT22;8350;52.316;10.530;2023-06-19T11:15:06;30.20;1.00
16479;DHT22;8350;52.316;10.530;2023-06-19T11:17:33;30.00;1.00
16479;DHT22;8350;52.316;10.530;2023-06-19T11:20:02;30.00;1.00
16479;DHT22;8350;52.316;10.530;2023-06-19T11:22:38;30.10;1.00
16479;DHT22;8350;52.316;10.530;2023-06-19T11:25:07;30.30;1.00
16479;DHT22;8350;52.316;10.530;2023-06-19T11:27:39;30.50;1.00
16479;DHT22;8350;52.316;10.530;2023-06-19T11:30:10;30.90;1.00
16479;DHT22;8350;52.316;10.530;2023-06-19T11:32:46;31.20;1.00
16479;DHT22;8350;52.316;10.530;2023-06-19T11:35:16;31.40;1.00
16479;DHT22;8350;52.316;10.530;2023-06-19T11:37:43;31.30;99.90
16479;DHT22;8350;52.316;10.530;2023-06-19T11:40:10;31.20;1.00
16479;DHT22;8350;52.316;10.530;2023-06-19T11:42:52;31.00;1.00
16479;DHT22;8350;52.316;10.530;2023-06-19T11:45:20;30.80;1.00
16479;DHT22;8350;52.316;10.530;2023-06-19T11:47:48;30.60;1.00
16479;DHT22;8350;52.316;10.530;2023-06-19T11:50:16;30.80;1.00
16479;DHT22;8350;52.316;10.530;2023-06-19T11:52:44;31.10;1.00
16479;DHT22;8350;52.316;10.530;2023-06-19T11:55:12;31.30;1.00
16479;DHT22;8350;52.316;10.530;2023-06-19T11:57:39;31.30;1.00
16479;DHT22;8350;52.316;10.530;2023-06-19T12:00:14;31.50;1.00
16479;DHT22;8350;52.316;10.530;2023-06-19T12:02:41;31.50;1.00
16479;DHT22;8350;52.316;10.530;2023-06-19T12:05:08;31.50;1.00
16479;DHT22;8350;52.316;10.530;2023-06-19T12:07:38;31.10;1.00
16479;DHT22;8350;52.316;10.530;2023-06-19T12:10:05;31.10;1.00
16479;DHT22;8350;52.316;10.530;2023-06-19T12:12:36;31.20;1.00
16479;DHT22;8350;52.316;10.530;2023-06-19T12:15:05;31.00;1.00
16479;DHT22;8350;52.316;10.530;2023-06-19T12:17:32;30.90;1.00
16479;DHT22;8350;52.316;10.530;2023-06-19T12:19:59;31.20;1.00
16479;DHT22;8350;52.316;10.530;2023-06-19T12:22:26;31.20;1.00
16479;DHT22;8350;52.316;10.530;2023-06-19T12:24:55;31.20;1.00
16479;DHT22;8350;52.316;10.530;2023-06-19T12:27:24;31.20;1.00
16479;DHT22;8350;52.316;10.530;2023-06-19T12:29:53;31.10;1.00
16479;DHT22;8350;52.316;10.530;2023-06-19T12:32:20;31.10;1.00
16479;DHT22;8350;52.316;10.530;2023-06-19T12:34:49;30.80;1.00
16479;DHT22;8350;52.316;10.530;2023-06-19T12:37:19;30.80;1.00
16479;DHT22;8350;52.316;10.530;2023-06-19T12:39:46;30.70;1.00
16479;DHT22;8350;52.316;10.530;2023-06-19T12:42:15;30.70;1.00
16479;DHT22;8350;52.316;10.530;2023-06-19T12:44:42;30.90;1.00
16479;DHT22;8350;52.316;10.530;2023-06-19T12:47:11;31.00;1.00
16479;DHT22;8350;52.316;10.530;2023-06-19T12:49:38;31.00;1.00
16479;DHT22;8350;52.316;10.530;2023-06-19T12:52:06;31.20;1.00
16479;DHT22;8350;52.316;10.530;2023-06-19T12:54:33;31.50;1.00
16479;DHT22;8350;52.316;10.530;2023-06-19T12:57:00;31.50;1.00
16479;DHT22;8350;52.316;10.530;2023-06-19T12:59:28;31.00;1.00
16479;DHT22;8350;52.316;10.530;2023-06-19T13:01:59;31.10;1.00
16479;DHT22;8350;52.316;10.530;2023-06-19T13:04:26;31.10;1.00
16479;DHT22;8350;52.316;10.530;2023-06-19T13:06:53;31.10;1.00
16479;DHT22;8350;52.316;10.530;2023-06-19T13:09:20;31.20;1.00
16479;DHT22;8350;52.316;10.530;2023-06-19T13:11:47;31.10;1.00
16479;DHT22;8350;52.316;10.530;2023-06-19T13:14:15;31.40;1.00
16479;DHT22;8350;52.316;10.530;2023-06-19T13:16:43;31.20;1.00
16479;DHT22;8350;52.316;10.530;2023-06-19T13:19:10;31.20;1.00
16479;DHT22;8350;52.316;10.530;2023-06-19T13:21:37;31.20;1.00
16479;DHT22;8350;52.316;10.530;2023-06-19T13:24:07;30.60;1.00
16479;DHT22;8350;52.316;10.530;2023-06-19T13:26:33;30.40;1.00
16479;DHT22;8350;52.316;10.530;2023-06-19T13:29:00;30.50;1.00
16479;DHT22;8350;52.316;10.530;2023-06-19T13:31:29;30.50;1.00
16479;DHT22;8350;52.316;10.530;2023-06-19T13:33:57;30.70;1.00
16479;DHT22;8350;52.316;10.530;2023-06-19T13:36:24;30.80;1.00
16479;DHT22;8350;52.316;10.530;2023-06-19T13:38:52;30.80;1.00
16479;DHT22;8350;52.316;10.530;2023-06-19T13:41:19;30.80;1.00
16479;DHT22;8350;52.316;10.530;2023-06-19T13:43:49;30.50;1.00
16479;DHT22;8350;52.316;10.530;2023-06-19T13:46:16;30.40;1.00
16479;DHT22;8350;52.316;10.530;2023-06-19T13:48:43;30.60;1.00
16479;DHT22;8350;52.316;10.530;2023-06-19T13:51:11;30.80;1.00
16479;DHT22;8350;52.316;10.530;2023-06-19T13:53:37;31.00;1.00
16479;DHT22;8350;52.316;10.530;2023-06-19T13:56:04;31.00;1.00
16479;DHT22;8350;52.316;10.530;2023-06-19T13:58:32;30.90;1.00
16479;DHT22;8350;52.316;10.530;2023-06-19T14:00:59;31.10;1.00
16479;DHT22;8350;52.316;10.530;2023-06-19T14:03:26;30.70;1.00
16479;DHT22;8350;52.316;10.530;2023-06-19T14:05:53;30.50;1.00
16479;DHT22;8350;52.316;10.530;2023-06-19T14:08:22;30.50;1.00
16479;DHT22;8350;52.316;10.530;2023-06-19T14:10:49;30.40;1.00
16479;DHT22;8350;52.316;10.530;2023-06-19T14:13:16;30.30;1.00
16479;DHT22;8350;52.316;10.530;2023-06-19T14:15:43;30.40;1.00
16479;DHT22;8350;52.316;10.530;2023-06-19T14:18:10;30.20;1.00
16479;DHT22;8350;52.316;10.530;2023-06-19T14:20:37;29.90;1.00
16479;DHT22;8350;52.316;10.530;2023-06-19T14:23:04;29.90;1.00
16479;DHT22;8350;52.316;10.530;2023-06-19T14:25:33;30.00;1.00
16479;DHT22;8350;52.316;10.530;2023-06-19T14:28:00;30.10;1.00
16479;DHT22;8350;52.316;10.530;2023-06-19T14:30:27;30.20;1.00
16479;DHT22;8350;52.316;10.530;2023-06-19T14:32:53;30.30;1.00
16479;DHT22;8350;52.316;10.530;2023-06-19T14:35:20;30.30;1.00
16479;DHT22;8350;52.316;10.530;2023-06-19T14:37:47;30.10;1.00
16479;DHT22;8350;52.316;10.530;2023-06-19T14:40:14;30.20;1.00
16479;DHT22;8350;52.316;10.530;2023-06-19T14:42:42;30.00;1.00
16479;DHT22;8350;52.316;10.530;2023-06-19T14:45:10;30.10;1.00
16479;DHT22;8350;52.316;10.530;2023-06-19T14:47:37;30.10;1.00
16479;DHT22;8350;52.316;10.530;2023-06-19T14:50:05;30.00;1.00
16479;DHT22;8350;52.316;10.530;2023-06-19T14:52:32;30.20;1.00
16479;DHT22;8350;52.316;10.530;2023-06-19T14:54:59;30.10;1.00
16479;DHT22;8350;52.316;10.530;2023-06-19T14:57:25;30.00;1.00
16479;DHT22;8350;52.316;10.530;2023-06-19T14:59:54;30.00;1.00
16479;DHT22;8350;52.316;10.530;2023-06-19T15:02:20;29.80;1.00
16479;DHT22;8350;52.316;10.530;2023-06-19T15:04:47;29.60;1.00
16479;DHT22;8350;52.316;10.530;2023-06-19T15:07:14;29.30;1.00
16479;DHT22;8350;52.316;10.530;2023-06-19T15:09:41;29.20;13.80
16479;DHT22;8350;52.316;10.530;2023-06-19T15:12:09;29.20;5.70
16479;DHT22;8350;52.316;10.530;2023-06-19T15:14:36;29.20;11.70
16479;DHT22;8350;52.316;10.530;2023-06-19T15:17:06;29.30;74.30
16479;DHT22;8350;52.316;10.530;2023-06-19T15:19:33;29.30;99.90
16479;DHT22;8350;52.316;10.530;2023-06-19T15:21:59;29.60;99.90
16479;DHT22;8350;52.316;10.530;2023-06-19T15:24:26;29.20;99.90
16479;DHT22;8350;52.316;10.530;2023-06-19T15:26:56;29.10;99.90
16479;DHT22;8350;52.316;10.530;2023-06-19T15:29:24;29.30;99.90
16479;DHT22;8350;52.316;10.530;2023-06-19T15:31:51;29.20;99.90
16479;DHT22;8350;52.316;10.530;2023-06-19T15:37:11;28.80;99.90
16479;DHT22;8350;52.316;10.530;2023-06-19T15:39:38;28.60;99.90
16479;DHT22;8350;52.316;10.530;2023-06-19T15:42:05;28.50;99.90
16479;DHT22;8350;52.316;10.530;2023-06-19T15:44:32;28.60;99.90
16479;DHT22;8350;52.316;10.530;2023-06-19T15:46:59;28.40;99.90